Time;durP1;ratioP1;P1;durP2;ratioP2;P2;SDS_P1;SDS_P2;PMS_P1;PMS_P2;Temp;Humidity;BMP_temperature;BMP_pressure;BME280_temperature;BME280_humidity;BME280_pressure;Samples;Min_cycle;Max_cycle;Signal;HPM_P1;HPM_P2
2023/03/05 00:00:07;;;;;;;3.97;1.53;;;3.10;99.90;;;;;;5030643;28;20257;-83
2023/03/05 00:02:33;;;;;;;4.60;1.73;;;3.20;99.90;;;;;;5032059;28;20219;-83
2023/03/05 00:04:58;;;;;;;4.10;1.67;;;3.10;99.90;;;;;;5030591;28;20622;-83
2023/03/05 00:07:24;;;;;;;2.80;1.53;;;3.10;99.90;;;;;;5030887;28;20192;-83
2023/03/05 00:09:49;;;;;;;3.80;1.90;;;3.10;99.90;;;;;;5030863;28;20181;-83
2023/03/05 00:12:16;;;;;;;4.97;1.70;;;3.10;99.90;;;;;;5032120;28;20212;-83
2023/03/05 00:14:41;;;;;;;3.50;1.47;;;3.20;99.90;;;;;;5033418;28;20201;-82
2023/03/05 00:17:07;;;;;;;3.93;1.60;;;3.10;99.90;;;;;;5034606;28;20172;-83
2023/03/05 00:19:32;;;;;;;4.57;1.53;;;3.10;99.90;;;;;;5034519;28;20176;-83
2023/03/05 00:21:58;;;;;;;3.17;1.57;;;3.10;99.90;;;;;;5035737;28;20169;-83
2023/03/05 00:24:24;;;;;;;4.70;1.57;;;3.10;99.90;;;;;;5034637;28;20172;-83
2023/03/05 00:26:49;;;;;;;4.83;1.43;;;3.10;99.90;;;;;;5035560;28;20193;-83
2023/03/05 00:29:18;;;;;;;5.27;1.80;;;3.10;99.90;;;;;;5035666;28;20260;-83
2023/03/05 00:31:45;;;;;;;3.77;1.43;;;3.10;99.90;;;;;;5033979;28;20174;-83
2023/03/05 00:34:14;;;;;;;4.87;1.70;;;3.10;99.90;;;;;;5034077;28;20189;-83
2023/03/05 00:36:45;;;;;;;2.93;1.50;;;3.10;99.90;;;;;;5035219;28;20189;-83
2023/03/05 00:39:11;;;;;;;3.83;1.50;;;3.10;99.90;;;;;;5034480;28;20161;-83
2023/03/05 00:41:37;;;;;;;5.50;1.40;;;3.10;99.90;;;;;;5034039;28;20168;-82
2023/03/05 00:44:03;;;;;;;4.53;1.20;;;3.10;99.90;;;;;;5035526;28;20226;-83
2023/03/05 00:46:29;;;;;;;2.70;1.33;;;3.10;99.90;;;;;;5035594;28;20196;-83
2023/03/05 00:48:55;;;;;;;4.13;1.60;;;3.10;99.90;;;;;;5035403;28;20176;-81
2023/03/05 00:51:21;;;;;;;2.67;1.50;;;3.20;99.90;;;;;;5033618;28;20177;-83
2023/03/05 00:53:47;;;;;;;8.57;1.70;;;3.10;99.90;;;;;;5033937;28;20178;-83
2023/03/05 00:56:13;;;;;;;5.93;1.73;;;3.10;99.90;;;;;;5034145;28;20235;-83
2023/03/05 00:58:38;;;;;;;4.93;1.90;;;3.10;99.90;;;;;;5035470;28;20195;-82
2023/03/05 01:01:05;;;;;;;4.20;1.80;;;3.10;99.90;;;;;;5033720;28;20177;-83
2023/03/05 01:03:32;;;;;;;5.17;1.77;;;3.10;99.90;;;;;;5035171;28;20168;-82
2023/03/05 01:05:58;;;;;;;4.17;1.80;;;3.00;99.90;;;;;;5033643;28;20237;-83
2023/03/05 01:08:24;;;;;;;3.60;1.53;;;3.00;99.90;;;;;;5034881;28;20178;-83
2023/03/05 01:10:51;;;;;;;3.43;1.80;;;3.00;99.90;;;;;;5033494;28;20173;-83
2023/03/05 01:13:16;;;;;;;5.10;1.83;;;2.90;99.90;;;;;;5034234;28;20181;-83
2023/03/05 01:15:42;;;;;;;6.87;2.00;;;2.90;99.90;;;;;;5034873;28;20686;-83
2023/03/05 01:18:08;;;;;;;6.40;1.83;;;2.80;99.90;;;;;;5034355;28;20224;-83
2023/03/05 01:20:34;;;;;;;4.23;2.00;;;2.90;99.90;;;;;;5033594;28;20198;-83
2023/03/05 01:23:00;;;;;;;3.93;1.77;;;2.90;99.90;;;;;;5033839;28;20172;-82
2023/03/05 01:25:27;;;;;;;4.47;1.57;;;3.00;99.90;;;;;;5034180;28;20200;-83
2023/03/05 01:27:53;;;;;;;5.87;2.00;;;3.00;99.90;;;;;;5034141;28;20630;-82
2023/03/05 01:30:18;;;;;;;4.00;1.77;;;3.00;99.90;;;;;;5034797;28;20176;-83
2023/03/05 01:32:44;;;;;;;4.67;2.00;;;3.00;99.90;;;;;;5034975;28;20708;-83
2023/03/05 01:35:16;;;;;;;4.67;2.23;;;3.00;99.90;;;;;;5034808;28;20211;-83
2023/03/05 01:37:42;;;;;;;4.80;1.87;;;3.00;99.90;;;;;;5033779;28;20220;-83
2023/03/05 01:40:10;;;;;;;2.87;1.87;;;3.00;99.90;;;;;;5033494;28;20177;-83
2023/03/05 01:42:35;;;;;;;5.73;1.90;;;2.90;99.90;;;;;;5033428;28;20223;-83
2023/03/05 01:45:05;;;;;;;2.13;1.60;;;2.90;99.90;;;;;;5033404;28;20200;-83
2023/03/05 01:47:31;;;;;;;5.83;1.90;;;2.90;99.90;;;;;;5034929;28;20167;-82
2023/03/05 01:49:57;;;;;;;5.13;1.90;;;2.90;99.90;;;;;;5035754;28;20543;-82
2023/03/05 01:52:24;;;;;;;4.50;1.60;;;2.90;99.90;;;;;;5033099;28;20267;-83
2023/03/05 01:54:53;;;;;;;5.20;1.40;;;2.90;99.90;;;;;;5033312;28;20270;-83
2023/03/05 01:57:34;;;;;;;4.63;1.80;;;2.90;99.90;;;;;;5032052;28;20229;-83
2023/03/05 02:00:07;;;;;;;5.07;1.60;;;2.90;99.90;;;;;;5025356;28;20165;-82
2023/03/05 02:02:32;;;;;;;4.87;1.80;;;2.90;99.90;;;;;;5012642;28;20179;-82
2023/03/05 02:05:11;;;;;;;3.73;1.80;;;2.90;99.90;;;;;;5012080;28;20196;-82
2023/03/05 02:07:39;;;;;;;4.80;1.80;;;2.80;99.90;;;;;;5013436;28;20275;-82
2023/03/05 02:10:23;;;;;;;3.57;1.50;;;2.80;99.90;;;;;;5012413;28;20181;-82
2023/03/05 02:12:50;;;;;;;4.03;1.83;;;2.80;99.90;;;;;;5012548;28;20203;-83
2023/03/05 02:15:17;;;;;;;4.07;1.37;;;2.80;99.90;;;;;;5012421;28;20210;-82
2023/03/05 02:17:43;;;;;;;4.93;1.53;;;2.80;99.90;;;;;;5013587;28;20171;-82
2023/03/05 02:20:15;;;;;;;4.10;1.83;;;2.70;99.90;;;;;;5013635;28;20199;-83
2023/03/05 02:22:41;;;;;;;3.63;1.40;;;2.60;99.90;;;;;;5011975;28;20175;-83
2023/03/05 02:25:27;;;;;;;6.27;1.40;;;2.70;99.90;;;;;;5013258;28;20201;-83
2023/03/05 02:27:59;;;;;;;4.97;1.70;;;2.60;99.90;;;;;;5013541;28;20179;-82
2023/03/05 02:30:25;;;;;;;3.40;1.50;;;2.60;99.90;;;;;;5013378;28;20180;-82
2023/03/05 02:32:50;;;;;;;3.50;1.67;;;2.60;99.90;;;;;;5012299;28;20175;-83
2023/03/05 02:35:16;;;;;;;2.43;1.57;;;2.60;99.90;;;;;;5012936;28;20217;-82
2023/03/05 02:37:42;;;;;;;1.80;1.30;;;2.70;99.90;;;;;;5011867;28;20169;-82
2023/03/05 02:40:10;;;;;;;1.83;1.13;;;2.70;99.90;;;;;;5011642;28;20179;-82
2023/03/05 02:42:36;;;;;;;4.03;1.40;;;2.70;99.90;;;;;;5012056;28;20672;-82
2023/03/05 02:45:02;;;;;;;2.97;1.20;;;2.60;99.90;;;;;;5013202;28;20199;-82
2023/03/05 02:47:28;;;;;;;2.37;1.43;;;2.60;99.90;;;;;;5011874;28;20245;-82
2023/03/05 02:49:54;;;;;;;2.30;1.47;;;2.60;99.90;;;;;;5011483;28;20172;-82
2023/03/05 02:52:22;;;;;;;2.27;1.13;;;2.50;99.90;;;;;;5013587;28;20539;-83
2023/03/05 02:54:48;;;;;;;3.80;1.30;;;2.50;99.90;;;;;;5011592;28;20199;-82
2023/03/05 02:57:14;;;;;;;3.87;1.20;;;2.50;99.90;;;;;;5013282;28;20177;-82
2023/03/05 02:59:39;;;;;;;1.47;1.10;;;2.50;99.90;;;;;;5011739;28;20225;-81
2023/03/05 03:02:05;;;;;;;2.03;1.10;;;2.50;99.90;;;;;;5011721;28;20202;-83
2023/03/05 03:04:31;;;;;;;2.60;1.30;;;2.50;99.90;;;;;;5013254;28;20171;-83
2023/03/05 03:06:56;;;;;;;3.37;1.30;;;2.50;99.90;;;;;;5012963;28;20569;-83
2023/03/05 03:09:22;;;;;;;2.83;1.30;;;2.50;99.90;;;;;;5012065;28;20173;-83
2023/03/05 03:11:47;;;;;;;1.60;1.10;;;2.50;99.90;;;;;;5012969;28;20184;-83
2023/03/05 03:14:13;;;;;;;3.53;1.47;;;2.60;99.90;;;;;;5011607;28;20171;-83
2023/03/05 03:16:38;;;;;;;2.73;1.10;;;2.60;99.90;;;;;;5011410;28;20212;-82
2023/03/05 03:19:04;;;;;;;3.87;1.53;;;2.60;99.90;;;;;;5011744;28;20177;-83
2023/03/05 03:21:30;;;;;;;1.43;1.20;;;2.50;99.90;;;;;;5011407;28;20189;-82
2023/03/05 03:23:56;;;;;;;3.50;1.30;;;2.50;99.90;;;;;;5012973;28;20172;-83
2023/03/05 03:26:21;;;;;;;3.70;1.63;;;2.50;99.90;;;;;;5012927;28;20207;-82
2023/03/05 03:28:47;;;;;;;2.83;1.20;;;2.50;99.90;;;;;;5012892;28;20226;-83
2023/03/05 03:31:13;;;;;;;3.43;1.50;;;2.50;99.90;;;;;;5012693;28;20521;-83
2023/03/05 03:33:39;;;;;;;2.97;1.40;;;2.50;99.90;;;;;;5013135;28;20175;-83
2023/03/05 03:36:05;;;;;;;3.20;1.40;;;2.50;99.90;;;;;;5012951;28;20570;-83
2023/03/05 03:38:30;;;;;;;2.33;1.23;;;2.50;99.90;;;;;;5011361;28;20175;-82
2023/03/05 03:40:56;;;;;;;3.97;1.30;;;2.50;99.90;;;;;;5011408;28;20175;-82
2023/03/05 03:43:21;;;;;;;3.90;1.90;;;2.50;99.90;;;;;;5011381;28;20636;-83
2023/03/05 03:45:47;;;;;;;1.90;1.30;;;2.50;99.90;;;;;;5011890;28;20199;-82
2023/03/05 03:48:12;;;;;;;2.60;1.37;;;2.50;99.90;;;;;;5013241;28;20180;-82
2023/03/05 03:50:42;;;;;;;4.10;1.80;;;2.50;99.90;;;;;;5014945;28;20178;-82
2023/03/05 03:53:12;;;;;;;4.03;1.70;;;2.40;99.90;;;;;;5016469;28;20192;-83
2023/03/05 03:55:38;;;;;;;2.17;1.50;;;2.50;99.90;;;;;;5016336;28;20207;-83
2023/03/05 03:58:05;;;;;;;3.87;1.50;;;2.50;99.90;;;;;;5015274;28;20197;-82
2023/03/05 04:00:30;;;;;;;3.27;1.50;;;2.50;99.90;;;;;;5016759;28;20262;-82
2023/03/05 04:02:56;;;;;;;3.70;1.47;;;2.40;99.90;;;;;;5015209;28;20266;-82
2023/03/05 04:05:21;;;;;;;2.33;1.40;;;2.40;99.90;;;;;;5016496;28;20220;-82
2023/03/05 04:07:47;;;;;;;2.67;1.67;;;2.50;99.90;;;;;;5016575;28;20193;-82
2023/03/05 04:10:13;;;;;;;1.93;1.40;;;2.40;99.90;;;;;;5016419;28;20179;-83
2023/03/05 04:12:38;;;;;;;3.43;1.67;;;2.40;99.90;;;;;;5019268;28;20178;-83
2023/03/05 04:15:06;;;;;;;3.83;1.50;;;2.40;99.90;;;;;;5034798;28;20212;-82
2023/03/05 04:17:32;;;;;;;3.10;1.50;;;2.40;99.90;;;;;;5035978;28;20710;-83
2023/03/05 04:19:58;;;;;;;2.67;1.60;;;2.50;99.90;;;;;;5035000;28;20211;-83
2023/03/05 04:22:23;;;;;;;3.63;1.73;;;2.40;99.90;;;;;;5034697;28;20174;-82
2023/03/05 04:24:49;;;;;;;3.20;1.80;;;2.40;99.90;;;;;;5034744;28;20659;-82
2023/03/05 04:27:14;;;;;;;2.67;1.53;;;2.40;99.90;;;;;;5034932;28;20225;-82
2023/03/05 04:29:40;;;;;;;3.60;1.90;;;2.50;99.90;;;;;;5035973;28;20187;-83
2023/03/05 04:32:06;;;;;;;4.07;1.80;;;2.40;99.90;;;;;;5034908;28;20174;-83
2023/03/05 04:34:32;;;;;;;2.13;1.57;;;2.40;99.90;;;;;;5034481;28;20186;-83
2023/03/05 04:36:58;;;;;;;4.43;1.57;;;2.30;99.90;;;;;;5034788;28;20204;-83
2023/03/05 04:39:24;;;;;;;2.77;1.63;;;2.40;99.90;;;;;;5036257;28;20175;-83
2023/03/05 04:41:49;;;;;;;3.60;1.80;;;2.40;99.90;;;;;;5034521;28;20260;-83
2023/03/05 04:44:16;;;;;;;2.70;1.73;;;2.40;99.90;;;;;;5035797;28;20662;-84
2023/03/05 04:46:42;;;;;;;3.00;1.97;;;2.40;99.90;;;;;;5035497;28;20195;-83
2023/03/05 04:49:08;;;;;;;3.57;1.60;;;2.40;99.90;;;;;;5034293;28;20179;-82
2023/03/05 04:51:34;;;;;;;4.07;1.60;;;2.40;99.90;;;;;;5035020;28;20548;-82
2023/03/05 04:53:59;;;;;;;4.40;1.67;;;2.30;99.90;;;;;;5034929;28;20175;-82
2023/03/05 04:56:25;;;;;;;3.63;1.60;;;2.30;99.90;;;;;;5034501;28;20214;-83
2023/03/05 04:58:51;;;;;;;3.70;1.97;;;2.20;99.90;;;;;;5033572;28;20167;-82
2023/03/05 05:01:16;;;;;;;3.60;1.50;;;2.20;99.90;;;;;;5031969;28;20176;-83
2023/03/05 05:03:42;;;;;;;4.47;2.03;;;2.20;99.90;;;;;;5033634;28;20347;-83
2023/03/05 05:06:08;;;;;;;3.87;1.60;;;2.20;99.90;;;;;;5034509;28;20210;-82
2023/03/05 05:08:34;;;;;;;3.33;1.63;;;2.20;99.90;;;;;;5033087;28;20172;-83
2023/03/05 05:11:01;;;;;;;3.03;1.80;;;2.10;99.90;;;;;;5033095;28;20200;-82
2023/03/05 05:13:28;;;;;;;2.97;1.50;;;2.10;99.90;;;;;;5034275;28;20548;-82
2023/03/05 05:15:54;;;;;;;6.50;1.60;;;2.10;99.90;;;;;;5034165;28;20758;-82
2023/03/05 05:18:20;;;;;;;2.03;1.40;;;2.20;99.90;;;;;;5033410;28;20171;-83
2023/03/05 05:20:46;;;;;;;3.47;1.50;;;2.20;99.90;;;;;;5033224;28;20177;-82
2023/03/05 05:23:12;;;;;;;4.13;1.30;;;2.20;99.90;;;;;;5033227;28;20201;-83
2023/03/05 05:25:38;;;;;;;3.13;1.40;;;2.20;99.90;;;;;;5034328;28;20222;-83
2023/03/05 05:28:04;;;;;;;4.00;1.40;;;2.20;99.90;;;;;;5034079;28;20639;-83
2023/03/05 05:30:29;;;;;;;2.17;1.50;;;2.20;99.90;;;;;;5033003;28;20175;-82
2023/03/05 05:32:55;;;;;;;2.70;1.40;;;2.20;99.90;;;;;;5034157;28;20184;-83
2023/03/05 05:35:21;;;;;;;1.43;1.30;;;2.20;99.90;;;;;;5032768;28;20213;-82
2023/03/05 05:37:46;;;;;;;4.47;1.77;;;2.20;99.90;;;;;;5034231;28;20175;-83
2023/03/05 05:40:12;;;;;;;3.00;1.20;;;2.20;99.90;;;;;;5032894;28;20172;-83
2023/03/05 05:42:37;;;;;;;2.50;1.40;;;2.10;99.90;;;;;;5034179;28;20183;-83
2023/03/05 05:45:03;;;;;;;2.67;1.40;;;2.10;99.90;;;;;;5032905;28;20230;-83
2023/03/05 05:47:29;;;;;;;4.03;1.40;;;2.20;99.90;;;;;;5032649;28;20264;-83
2023/03/05 05:49:55;;;;;;;3.07;1.67;;;2.20;99.90;;;;;;5034139;28;20181;-82
2023/03/05 05:52:21;;;;;;;3.23;1.50;;;2.20;99.90;;;;;;5033634;28;20185;-79
2023/03/05 05:54:47;;;;;;;4.70;1.60;;;2.60;99.90;;;;;;5033509;28;20200;-79
2023/03/05 05:57:14;;;;;;;4.50;1.50;;;3.40;99.90;;;;;;5033913;28;20264;-80
2023/03/05 05:59:40;;;;;;;2.07;1.50;;;3.90;99.90;;;;;;5034314;28;20177;-78
2023/03/05 06:02:06;;;;;;;3.03;1.40;;;4.10;99.90;;;;;;5033989;28;20272;-79
2023/03/05 06:04:36;;;;;;;2.80;1.57;;;4.30;99.90;;;;;;5033611;28;20185;-82
2023/03/05 06:07:02;;;;;;;1.83;1.27;;;4.20;99.90;;;;;;5032434;28;20189;-83
2023/03/05 06:09:27;;;;;;;3.20;1.60;;;3.90;99.90;;;;;;5032563;28;20266;-83
2023/03/05 06:11:53;;;;;;;2.50;1.20;;;3.50;99.90;;;;;;5033431;28;20234;-83
2023/03/05 06:14:19;;;;;;;3.03;1.40;;;3.10;99.90;;;;;;5033659;28;20175;-83
2023/03/05 06:16:44;;;;;;;1.90;1.40;;;2.90;99.90;;;;;;5034163;28;20218;-82
2023/03/05 06:19:12;;;;;;;1.50;1.23;;;2.80;99.90;;;;;;5032160;28;20172;-82
2023/03/05 06:21:37;;;;;;;4.20;1.53;;;2.70;99.90;;;;;;5032123;28;20178;-83
2023/03/05 06:24:03;;;;;;;2.67;1.20;;;2.60;99.90;;;;;;5033603;28;20548;-83
2023/03/05 06:26:29;;;;;;;3.33;1.60;;;2.60;99.90;;;;;;5032341;28;20197;-83
2023/03/05 06:28:54;;;;;;;2.67;1.57;;;2.50;99.90;;;;;;5032792;28;20191;-83
2023/03/05 06:31:24;;;;;;;2.70;1.30;;;2.40;99.90;;;;;;5033029;28;20588;-82
2023/03/05 06:33:50;;;;;;;4.07;1.37;;;2.40;99.90;;;;;;5033046;28;20184;-83
2023/03/05 06:36:18;;;;;;;3.87;1.53;;;2.40;99.90;;;;;;5032646;28;20209;-82
2023/03/05 06:38:44;;;;;;;4.90;1.90;;;2.40;99.90;;;;;;5033719;28;20183;-82
2023/03/05 06:41:13;;;;;;;3.10;1.57;;;2.50;99.90;;;;;;5032187;28;20225;-80
2023/03/05 06:43:40;;;;;;;2.87;1.50;;;2.40;99.90;;;;;;5033665;28;20173;-81
2023/03/05 06:46:10;;;;;;;4.50;1.70;;;2.50;99.90;;;;;;5033346;28;20741;-83
2023/03/05 06:48:36;;;;;;;1.90;1.40;;;2.40;99.90;;;;;;5032396;28;20184;-82
2023/03/05 06:51:02;;;;;;;3.03;1.80;;;2.40;99.90;;;;;;5033404;28;20623;-82
2023/03/05 06:53:27;;;;;;;4.20;1.83;;;2.40;99.90;;;;;;5033490;28;20175;-81
2023/03/05 06:55:53;;;;;;;2.90;1.77;;;2.40;99.90;;;;;;5032180;28;20686;-81
2023/03/05 06:58:20;;;;;;;3.20;1.87;;;2.40;99.90;;;;;;5035807;28;20177;-81
2023/03/05 07:00:45;;;;;;;3.13;1.87;;;2.40;99.90;;;;;;5033513;28;20628;-83
2023/03/05 07:03:11;;;;;;;3.80;1.90;;;2.40;99.90;;;;;;5033757;28;20249;-84
2023/03/05 07:05:38;;;;;;;2.77;2.20;;;2.50;99.90;;;;;;5033474;28;20257;-85
2023/03/05 07:08:04;;;;;;;5.47;2.30;;;2.50;99.90;;;;;;5034609;28;20692;-82
2023/03/05 07:10:30;;;;;;;4.83;2.83;;;2.50;99.90;;;;;;5033477;28;20262;-82
2023/03/05 07:12:55;;;;;;;3.97;3.10;;;2.50;99.90;;;;;;5035548;28;20178;-82
2023/03/05 07:15:21;;;;;;;3.73;2.97;;;2.50;99.90;;;;;;5034663;28;20207;-80
2023/03/05 07:17:46;;;;;;;3.57;1.70;;;2.60;99.90;;;;;;5024852;28;20231;-80
2023/03/05 07:20:12;;;;;;;3.00;2.53;;;2.60;99.90;;;;;;5038154;28;20230;-82
2023/03/05 07:22:38;;;;;;;3.33;2.47;;;2.60;99.90;;;;;;5039571;28;20645;-82
2023/03/05 07:25:04;;;;;;;5.03;2.60;;;2.60;99.90;;;;;;5040986;28;20245;-81
2023/03/05 07:27:33;;;;;;;4.17;2.90;;;2.60;99.90;;;;;;5038876;28;20182;-83
2023/03/05 07:29:58;;;;;;;1.67;1.53;;;2.60;99.90;;;;;;5037619;28;20174;-82
2023/03/05 07:32:24;;;;;;;1.43;1.10;;;2.70;99.90;;;;;;5036707;28;20186;-81
2023/03/05 07:34:49;;;;;;;3.77;1.40;;;2.70;99.90;;;;;;5036665;28;20212;-81
2023/03/05 07:37:15;;;;;;;1.77;1.10;;;2.70;99.90;;;;;;5037116;28;20180;-81
2023/03/05 07:39:40;;;;;;;1.67;1.00;;;2.70;99.90;;;;;;5036936;28;20182;-81
2023/03/05 07:42:06;;;;;;;2.67;1.30;;;2.70;99.90;;;;;;5038000;28;20720;-81
2023/03/05 07:44:32;;;;;;;3.60;1.20;;;2.70;99.90;;;;;;5036838;28;20175;-80
2023/03/05 07:46:57;;;;;;;2.63;1.30;;;2.80;99.90;;;;;;5035909;28;20281;-80
2023/03/05 07:49:23;;;;;;;1.90;1.30;;;2.80;99.90;;;;;;5036249;28;20224;-81
2023/03/05 07:51:48;;;;;;;2.90;1.30;;;2.80;99.90;;;;;;5035012;28;20266;-80
2023/03/05 07:54:14;;;;;;;2.07;1.67;;;2.90;99.90;;;;;;5036069;28;20175;-80
2023/03/05 07:56:39;;;;;;;2.43;1.30;;;2.90;99.90;;;;;;5034905;28;20215;-80
2023/03/05 07:59:07;;;;;;;3.40;1.47;;;3.00;99.90;;;;;;5036084;28;20176;-80
2023/03/05 08:01:34;;;;;;;3.17;1.47;;;3.00;99.90;;;;;;5034792;28;20232;-80
2023/03/05 08:04:01;;;;;;;1.93;1.20;;;3.00;99.90;;;;;;5034977;28;20198;-80
2023/03/05 08:06:27;;;;;;;2.70;1.33;;;3.00;99.90;;;;;;5034532;28;20611;-80
2023/03/05 08:08:52;;;;;;;1.40;1.10;;;3.00;99.90;;;;;;5036010;28;20186;-80
2023/03/05 08:11:18;;;;;;;1.93;1.17;;;3.10;99.90;;;;;;5035721;28;20206;-80
2023/03/05 08:13:44;;;;;;;6.53;3.13;;;3.10;99.90;;;;;;5034524;28;20179;-80
2023/03/05 08:16:17;;;;;;;4.00;1.53;;;3.10;99.90;;;;;;5034291;28;20209;-80
2023/03/05 08:18:43;;;;;;;2.97;1.30;;;3.10;99.90;;;;;;5022846;28;20186;-81
2023/03/05 08:21:21;;;;;;;4.13;2.10;;;3.00;99.90;;;;;;5030680;28;20206;-80
2023/03/05 08:23:47;;;;;;;1.30;1.20;;;3.10;99.90;;;;;;5035333;28;20238;-80
2023/03/05 08:26:15;;;;;;;4.47;1.87;;;3.10;99.90;;;;;;5034602;28;20608;-80
2023/03/05 08:28:40;;;;;;;3.13;1.10;;;3.10;99.90;;;;;;5034518;28;20205;-80
2023/03/05 08:31:10;;;;;;;3.73;1.43;;;3.10;99.90;;;;;;5035392;28;20183;-80
2023/03/05 08:33:37;;;;;;;1.80;1.27;;;3.20;99.90;;;;;;5035501;28;20179;-80
2023/03/05 08:36:02;;;;;;;5.70;2.47;;;3.20;99.90;;;;;;5034964;28;20303;-81
2023/03/05 08:38:28;;;;;;;5.80;3.50;;;3.20;99.90;;;;;;5035683;28;20271;-80
2023/03/05 08:40:54;;;;;;;4.40;3.53;;;3.30;99.90;;;;;;5034322;28;20266;-79
2023/03/05 08:43:19;;;;;;;3.87;1.90;;;3.30;99.90;;;;;;5035521;28;20175;-80
2023/03/05 08:45:46;;;;;;;12.43;9.00;;;3.30;99.90;;;;;;5033825;28;20206;-80
2023/03/05 08:48:12;;;;;;;12.13;8.10;;;3.30;99.90;;;;;;5033917;28;20657;-80
2023/03/05 08:50:38;;;;;;;5.13;3.10;;;3.30;99.90;;;;;;5033656;28;20179;-82
2023/03/05 08:53:03;;;;;;;21.43;12.90;;;3.20;99.90;;;;;;5036469;28;20203;-81
2023/03/05 08:55:29;;;;;;;15.47;10.83;;;3.30;99.90;;;;;;5030901;28;20251;-81
2023/03/05 08:57:55;;;;;;;9.70;4.30;;;3.30;99.90;;;;;;5029563;28;20184;-81
2023/03/05 09:00:20;;;;;;;2.37;1.73;;;3.30;99.90;;;;;;5033928;28;20171;-81
2023/03/05 09:02:46;;;;;;;8.97;4.20;;;3.30;99.90;;;;;;5033433;28;20176;-81
2023/03/05 09:05:12;;;;;;;2.77;1.37;;;3.20;99.90;;;;;;5035042;28;20247;-81
2023/03/05 09:07:37;;;;;;;9.43;4.97;;;3.30;99.90;;;;;;5035095;28;20167;-81
2023/03/05 09:10:04;;;;;;;2.47;1.20;;;3.30;99.90;;;;;;5033110;28;20634;-81
2023/03/05 09:12:30;;;;;;;2.23;1.20;;;3.20;99.90;;;;;;5033319;28;20187;-81
2023/03/05 09:14:56;;;;;;;2.13;1.30;;;3.30;99.90;;;;;;5033283;28;20287;-81
2023/03/05 09:17:22;;;;;;;5.83;2.27;;;3.20;99.90;;;;;;5034973;28;20238;-81
2023/03/05 09:19:48;;;;;;;11.67;4.93;;;3.20;99.90;;;;;;5033474;28;20178;-81
2023/03/05 09:22:14;;;;;;;2.70;1.20;;;3.20;99.90;;;;;;5033805;28;20182;-81
2023/03/05 09:24:39;;;;;;;1.43;1.30;;;3.30;99.90;;;;;;5033532;28;20175;-82
2023/03/05 09:27:05;;;;;;;6.10;3.23;;;3.30;99.90;;;;;;5034649;28;20175;-81
2023/03/05 09:29:31;;;;;;;2.10;1.30;;;3.30;99.90;;;;;;5033354;28;20176;-82
2023/03/05 09:31:56;;;;;;;3.03;1.77;;;3.30;99.90;;;;;;5034326;28;20224;-80
2023/03/05 09:34:23;;;;;;;2.90;1.77;;;3.30;99.90;;;;;;5033800;28;20265;-80
2023/03/05 09:36:49;;;;;;;1.20;1.10;;;3.40;99.90;;;;;;5034653;28;20217;-81
2023/03/05 09:39:15;;;;;;;4.43;1.67;;;3.50;99.90;;;;;;5034325;28;20623;-79
2023/03/05 09:41:57;;;;;;;2.03;1.60;;;3.50;99.90;;;;;;5034156;28;20170;-84
2023/03/05 09:45:16;;;;;;;2.40;1.23;;;3.50;99.90;;;;;;5036654;28;20660;-81
2023/03/05 09:47:47;;;;;;;2.93;1.30;;;3.50;99.90;;;;;;4974454;28;20178;-79
2023/03/05 09:50:41;;;;;;;2.40;1.47;;;3.60;99.90;;;;;;5032419;28;20182;-80
2023/03/05 09:53:37;;;;;;;1.77;1.40;;;3.60;99.90;;;;;;5035634;28;20180;-78
2023/03/05 09:56:28;;;;;;;5.40;2.30;;;3.60;99.90;;;;;;5035644;28;20232;-80
2023/03/05 09:58:58;;;;;;;2.10;1.23;;;3.60;99.90;;;;;;5030525;28;20179;-80
2023/03/05 10:01:40;;;;;;;2.57;1.50;;;3.60;99.90;;;;;;5032412;28;20266;-82
2023/03/05 10:04:16;;;;;;;419.83;158.27;;;3.70;99.90;;;;;;5033990;28;20180;-81
2023/03/05 10:06:59;;;;;;;8.00;4.07;;;4.00;99.90;;;;;;5032546;28;20220;-82
2023/03/05 10:09:46;;;;;;;104.03;34.10;;;4.20;99.90;;;;;;5032978;28;20179;-80
2023/03/05 10:12:41;;;;;;;3.57;2.00;;;4.10;99.90;;;;;;5033176;28;20677;-84
2023/03/05 10:15:30;;;;;;;2.73;1.40;;;4.00;99.90;;;;;;5034204;28;20238;-80
2023/03/05 10:18:11;;;;;;;3.40;1.60;;;3.90;99.90;;;;;;5013926;28;20657;-80
2023/03/05 10:20:52;;;;;;;3.07;1.20;;;3.90;99.90;;;;;;5035272;28;20176;-81
2023/03/05 10:23:57;;;;;;;4.30;2.37;;;3.90;99.90;;;;;;5036921;28;20171;-82
2023/03/05 10:26:22;;;;;;;8.23;3.83;;;3.90;99.90;;;;;;4998202;28;20194;-84
2023/03/05 10:29:05;;;;;;;1.57;1.30;;;3.90;99.90;;;;;;5026755;28;20189;-81
2023/03/05 10:31:44;;;;;;;2.77;1.87;;;4.00;99.90;;;;;;5036589;28;20184;-81
2023/03/05 10:34:26;;;;;;;2.20;1.40;;;4.10;99.90;;;;;;5038052;28;20172;-82
2023/03/05 10:37:11;;;;;;;2.70;1.37;;;4.10;99.90;;;;;;5036347;28;20275;-83
2023/03/05 10:39:47;;;;;;;31.77;13.33;;;4.20;99.90;;;;;;5037042;28;20677;-83
2023/03/05 10:42:40;;;;;;;1.47;1.10;;;4.30;99.90;;;;;;5033610;28;20207;-82
2023/03/05 10:45:21;;;;;;;1.33;1.10;;;4.40;99.90;;;;;;5022790;28;20255;-84
2023/03/05 10:47:46;;;;;;;2.73;1.40;;;4.40;99.90;;;;;;5019576;28;20212;-82
2023/03/05 10:50:19;;;;;;;3.13;1.50;;;4.40;99.90;;;;;;5032328;28;20196;-84
2023/03/05 10:52:50;;;;;;;2.20;1.40;;;4.40;99.90;;;;;;5031452;28;20175;-84
2023/03/05 10:55:21;;;;;;;4.10;2.00;;;4.20;99.90;;;;;;5032103;28;20209;-85
2023/03/05 10:57:46;;;;;;;2.90;2.03;;;4.20;99.90;;;;;;5031082;28;20186;-85
2023/03/05 11:00:24;;;;;;;3.37;2.20;;;4.20;99.90;;;;;;5030039;28;20176;-85
2023/03/05 11:03:03;;;;;;;4.03;2.73;;;4.20;99.90;;;;;;5030683;28;20169;-85
2023/03/05 11:05:40;;;;;;;4.53;2.77;;;4.20;99.90;;;;;;5032478;28;20262;-85
2023/03/05 11:08:31;;;;;;;7.07;4.03;;;4.20;99.90;;;;;;5031235;28;20212;-84
2023/03/05 11:11:18;;;;;;;4.47;2.87;;;4.20;99.90;;;;;;5024980;28;20191;-85
2023/03/05 11:13:58;;;;;;;4.37;3.00;;;4.20;99.90;;;;;;5031232;28;20183;-85
2023/03/05 11:16:30;;;;;;;5.33;3.70;;;4.20;99.90;;;;;;5032600;28;20227;-84
2023/03/05 11:19:21;;;;;;;4.70;2.70;;;4.30;99.90;;;;;;5031373;28;20264;-85
2023/03/05 11:22:15;;;;;;;7.07;4.50;;;4.40;99.90;;;;;;5032612;28;20173;-85
2023/03/05 11:24:41;;;;;;;5.53;3.20;;;4.40;99.90;;;;;;5031315;28;20177;-84
2023/03/05 11:27:30;;;;;;;4.67;2.17;;;4.40;99.90;;;;;;5032894;28;20184;-84
2023/03/05 11:29:56;;;;;;;3.73;2.10;;;4.50;99.90;;;;;;5032504;28;20603;-84
2023/03/05 11:32:24;;;;;;;6.13;3.50;;;4.60;99.90;;;;;;5031180;28;20181;-84
2023/03/05 11:34:50;;;;;;;4.57;2.50;;;4.60;99.90;;;;;;5032429;28;20201;-85
2023/03/05 11:37:30;;;;;;;5.40;3.23;;;4.70;99.90;;;;;;5031645;28;20211;-86
2023/03/05 11:40:23;;;;;;;5.67;3.20;;;4.70;99.90;;;;;;5031065;28;20562;-86
2023/03/05 11:42:54;;;;;;;9.83;2.23;;;4.60;99.90;;;;;;5031632;28;20182;-84
2023/03/05 11:45:21;;;;;;;6.83;3.83;;;4.60;99.90;;;;;;5031063;28;20693;-85
2023/03/05 11:47:50;;;;;;;4.93;2.57;;;4.60;99.90;;;;;;5031464;28;20186;-84
2023/03/05 11:50:33;;;;;;;6.00;3.40;;;4.50;99.90;;;;;;5032385;28;20188;-86
2023/03/05 11:53:16;;;;;;;3.83;2.50;;;4.70;99.90;;;;;;5033323;28;20225;-85
2023/03/05 11:55:43;;;;;;;4.77;2.57;;;4.70;99.90;;;;;;5032820;28;20209;-84
2023/03/05 11:58:39;;;;;;;4.90;2.67;;;4.50;99.90;;;;;;5031394;28;20185;-85
2023/03/05 12:01:15;;;;;;;3.93;2.57;;;4.60;99.90;;;;;;5032249;28;20251;-85
2023/03/05 12:03:42;;;;;;;6.57;3.33;;;4.50;99.90;;;;;;5032005;28;20679;-85
2023/03/05 12:06:39;;;;;;;4.27;2.40;;;4.50;99.90;;;;;;5033926;28;20216;-84
2023/03/05 12:09:18;;;;;;;4.07;2.50;;;4.70;99.90;;;;;;5033881;28;20221;-84
2023/03/05 12:11:47;;;;;;;4.17;2.53;;;4.70;99.90;;;;;;5036853;28;20177;-84
2023/03/05 12:14:37;;;;;;;5.90;3.50;;;4.70;99.90;;;;;;5035410;28;20644;-84
2023/03/05 12:17:12;;;;;;;4.13;3.37;;;4.70;99.90;;;;;;5035645;28;20272;-85
2023/03/05 12:20:05;;;;;;;4.30;3.10;;;4.70;99.90;;;;;;5036485;28;20165;-84
2023/03/05 12:22:36;;;;;;;4.60;3.17;;;4.70;99.90;;;;;;5035746;28;20178;-85
2023/03/05 12:25:26;;;;;;;5.17;2.87;;;4.60;99.90;;;;;;5037353;28;20716;-85
2023/03/05 12:27:52;;;;;;;5.10;2.60;;;4.50;99.90;;;;;;5035615;28;20180;-86
2023/03/05 12:30:33;;;;;;;5.83;4.50;;;4.50;99.90;;;;;;5035506;28;20560;-85
2023/03/05 12:33:00;;;;;;;7.90;4.70;;;4.60;99.90;;;;;;5035556;28;20180;-84
2023/03/05 12:35:29;;;;;;;4.77;2.60;;;4.60;99.90;;;;;;5035831;28;20205;-84
2023/03/05 12:37:57;;;;;;;8.57;5.80;;;4.60;99.90;;;;;;5035625;28;20173;-85
2023/03/05 12:40:29;;;;;;;6.53;3.67;;;4.60;99.90;;;;;;5035191;28;20641;-86
2023/03/05 12:42:57;;;;;;;5.30;2.70;;;4.50;99.90;;;;;;5037591;28;20185;-85
2023/03/05 12:45:26;;;;;;;5.40;3.90;;;4.50;99.90;;;;;;5037611;28;20244;-85
2023/03/05 12:47:54;;;;;;;5.43;3.50;;;4.50;99.90;;;;;;5036635;28;20184;-85
2023/03/05 12:50:28;;;;;;;6.03;3.53;;;4.40;99.90;;;;;;5037752;28;20220;-85
2023/03/05 12:53:09;;;;;;;4.77;2.30;;;4.50;99.90;;;;;;5036014;28;20180;-85
2023/03/05 12:55:48;;;;;;;4.60;2.30;;;4.50;99.90;;;;;;5036047;28;20270;-85
2023/03/05 12:58:41;;;;;;;3.47;2.60;;;4.50;99.90;;;;;;5038187;28;20177;-84
2023/03/05 13:01:10;;;;;;;4.73;2.83;;;4.50;99.90;;;;;;5036036;28;20185;-85
2023/03/05 13:04:02;;;;;;;3.53;2.33;;;4.40;99.90;;;;;;5036705;28;20177;-84
2023/03/05 13:06:34;;;;;;;5.17;2.97;;;4.40;99.90;;;;;;5036910;28;20212;-85